createdAt,value
2016-10-10T00:00:58.159Z,0
2016-10-10T00:01:58.146Z,0
2016-10-10T00:02:58.141Z,0
2016-10-10T00:03:58.124Z,0
2016-10-10T00:04:58.111Z,0
2016-10-10T00:05:58.080Z,0
2016-10-10T00:06:58.067Z,0
2016-10-10T00:07:58.037Z,0
2016-10-10T00:08:58.030Z,0
2016-10-10T00:09:57.981Z,0
2016-10-10T00:10:57.989Z,0
2016-10-10T00:11:57.952Z,0
2016-10-10T00:12:57.927Z,0
2016-10-10T00:13:57.937Z,0
2016-10-10T00:14:57.912Z,0
2016-10-10T00:15:57.879Z,0
2016-10-10T00:16:57.893Z,0
2016-10-10T00:17:57.859Z,0
2016-10-10T00:18:57.858Z,0
2016-10-10T00:19:57.795Z,0
2016-10-10T00:20:57.799Z,0
2016-10-10T00:21:57.814Z,0
2016-10-10T00:22:57.777Z,0
2016-10-10T00:23:57.737Z,0
2016-10-10T00:24:57.717Z,0
2016-10-10T00:25:57.697Z,0
2016-10-10T00:26:57.696Z,0
2016-10-10T00:27:57.689Z,0
2016-10-10T00:28:57.635Z,0
2016-10-10T00:29:57.616Z,0
2016-10-10T00:30:57.614Z,0
2016-10-10T00:31:57.583Z,0
2016-10-10T00:32:57.564Z,0
2016-10-10T00:33:57.545Z,0
2016-10-10T00:34:57.519Z,0
2016-10-10T00:35:57.517Z,0
2016-10-10T00:36:57.493Z,0
2016-10-10T00:37:57.473Z,0
2016-10-10T00:38:57.459Z,0
2016-10-10T00:39:57.412Z,0
2016-10-10T00:40:57.420Z,0
2016-10-10T00:41:57.371Z,0
2016-10-10T00:42:57.377Z,0
2016-10-10T00:43:57.365Z,0
2016-10-10T00:44:57.314Z,0
2016-10-10T00:45:57.304Z,0
2016-10-10T00:46:57.301Z,0
2016-10-10T00:47:57.289Z,0
2016-10-10T00:48:57.240Z,0
2016-10-10T00:49:57.253Z,0
2016-10-10T00:50:57.227Z,0
2016-10-10T00:51:57.177Z,0
2016-10-10T00:52:57.182Z,0
2016-10-10T00:53:57.137Z,0
2016-10-10T00:54:57.137Z,0
2016-10-10T00:55:57.105Z,0
2016-10-10T00:56:57.063Z,0
2016-10-10T00:57:57.059Z,0
2016-10-10T00:58:57.033Z,0
2016-10-10T00:59:57.015Z,0
2016-10-10T01:00:57.011Z,0
2016-10-10T01:01:56.984Z,0
2016-10-10T01:02:56.943Z,0
2016-10-10T01:03:56.938Z,0
2016-10-10T01:04:56.906Z,0
2016-10-10T01:05:56.899Z,0
2016-10-10T01:06:56.861Z,0
2016-10-10T01:07:56.850Z,0
2016-10-10T01:08:56.823Z,0
2016-10-10T01:09:56.822Z,0
2016-10-10T01:10:56.763Z,0
2016-10-10T01:11:56.748Z,0
2016-10-10T01:12:56.755Z,0
2016-10-10T01:13:56.722Z,0
2016-10-10T01:14:56.881Z,0
2016-10-10T01:15:56.687Z,0
2016-10-10T01:16:56.658Z,0
2016-10-10T01:17:56.646Z,0
2016-10-10T01:18:56.628Z,0
2016-10-10T01:19:56.607Z,0
2016-10-10T01:20:56.582Z,0
2016-10-10T01:21:56.578Z,0
2016-10-10T01:22:56.533Z,0
2016-10-10T01:23:56.483Z,0
2016-10-10T01:24:56.487Z,0
2016-10-10T01:25:56.792Z,0
2016-10-10T01:26:56.453Z,0
2016-10-10T01:27:56.457Z,0
2016-10-10T01:28:56.387Z,0
2016-10-10T01:29:56.399Z,0
2016-10-10T01:30:56.667Z,0
2016-10-10T01:31:56.335Z,0
2016-10-10T01:32:56.324Z,0
2016-10-10T01:33:56.296Z,0
2016-10-10T01:34:56.250Z,0
2016-10-10T01:35:56.268Z,0
2016-10-10T01:36:56.205Z,0
2016-10-10T01:37:56.485Z,0
2016-10-10T01:38:56.198Z,0
2016-10-10T01:39:56.165Z,0
2016-10-10T01:40:56.161Z,0
2016-10-10T01:41:56.117Z,0
2016-10-10T01:42:56.104Z,0
2016-10-10T01:43:56.301Z,0
2016-10-10T01:44:56.056Z,0
2016-10-10T01:45:56.040Z,0
2016-10-10T01:46:56.006Z,0
2016-10-10T01:47:55.974Z,0
2016-10-10T01:48:55.996Z,0
2016-10-10T01:49:55.955Z,0
2016-10-10T01:50:55.938Z,0
2016-10-10T01:51:55.912Z,0
2016-10-10T01:52:55.890Z,0
2016-10-10T01:53:55.871Z,0
2016-10-10T01:54:55.843Z,0
2016-10-10T01:55:55.832Z,0
2016-10-10T01:56:55.793Z,0
2016-10-10T01:57:55.795Z,0
2016-10-10T01:58:55.755Z,0
2016-10-10T01:59:55.744Z,0
2016-10-10T02:00:55.726Z,0
2016-10-10T02:01:55.714Z,0
2016-10-10T02:02:55.685Z,0
2016-10-10T02:03:55.675Z,0
2016-10-10T02:04:55.654Z,0
2016-10-10T02:05:55.614Z,0
2016-10-10T02:06:55.607Z,0
2016-10-10T02:07:55.590Z,0
2016-10-10T02:08:55.759Z,0
2016-10-10T02:09:55.538Z,0
2016-10-10T02:10:55.729Z,0
2016-10-10T02:11:55.505Z,0
2016-10-10T02:12:55.462Z,0
2016-10-10T02:13:55.468Z,0
2016-10-10T02:14:55.447Z,0
2016-10-10T02:15:55.415Z,0
2016-10-10T02:16:55.398Z,0
2016-10-10T02:17:55.371Z,0
2016-10-10T02:18:55.346Z,0
2016-10-10T02:19:55.333Z,0
2016-10-10T02:20:55.319Z,0
2016-10-10T02:21:55.286Z,0
2016-10-10T02:22:55.247Z,0
2016-10-10T02:23:55.245Z,0
2016-10-10T02:24:55.238Z,0
2016-10-10T02:25:55.224Z,0
2016-10-10T02:26:55.199Z,0
2016-10-10T02:27:55.196Z,0
2016-10-10T02:28:55.170Z,0
2016-10-10T02:29:55.132Z,0
2016-10-10T02:30:55.141Z,0
2016-10-10T02:31:55.097Z,0
2016-10-10T02:32:55.072Z,0
2016-10-10T02:33:55.044Z,0
2016-10-10T02:34:55.030Z,0
2016-10-10T02:35:55.010Z,0
2016-10-10T02:36:55.198Z,0
2016-10-10T02:37:55.183Z,0
2016-10-10T02:38:55.161Z,0
2016-10-10T02:39:54.941Z,0
2016-10-10T02:40:54.921Z,0
2016-10-10T02:41:54.889Z,0
2016-10-10T02:42:54.861Z,0
2016-10-10T02:43:54.864Z,0
2016-10-10T02:44:54.832Z,0
2016-10-10T02:45:54.818Z,0
2016-10-10T02:46:54.837Z,0
2016-10-10T02:47:54.796Z,0
2016-10-10T02:48:54.753Z,0
2016-10-10T02:49:54.744Z,0
2016-10-10T02:50:54.734Z,0
2016-10-10T02:51:54.711Z,0
2016-10-10T02:52:54.659Z,0
2016-10-10T02:53:54.666Z,0
2016-10-10T02:54:54.637Z,0
2016-10-10T02:55:54.621Z,0
2016-10-10T02:56:54.622Z,0
2016-10-10T02:57:54.597Z,0
2016-10-10T02:58:54.570Z,0
2016-10-10T02:59:54.531Z,0
2016-10-10T03:00:54.530Z,0
2016-10-10T03:01:54.512Z,0
2016-10-10T03:02:54.476Z,0
2016-10-10T03:03:54.461Z,0
2016-10-10T03:04:54.454Z,0
2016-10-10T03:05:54.434Z,0
2016-10-10T03:06:54.626Z,0
2016-10-10T03:07:54.369Z,0
2016-10-10T03:08:54.377Z,0
2016-10-10T03:09:54.343Z,0
2016-10-10T03:10:54.331Z,0
2016-10-10T03:11:54.298Z,0
2016-10-10T03:12:54.290Z,0
2016-10-10T03:13:54.271Z,0
2016-10-10T03:14:54.264Z,0
2016-10-10T03:15:54.243Z,0
2016-10-10T03:16:54.236Z,0
2016-10-10T03:17:54.208Z,0
2016-10-10T03:18:54.198Z,0
2016-10-10T03:19:54.166Z,0
2016-10-10T03:20:54.126Z,0
2016-10-10T03:21:54.132Z,0
2016-10-10T03:22:54.072Z,0
2016-10-10T03:23:54.072Z,0
2016-10-10T03:24:54.061Z,0
2016-10-10T03:25:54.046Z,0
2016-10-10T03:26:54.036Z,0
2016-10-10T03:27:54.003Z,0
2016-10-10T03:28:53.999Z,0
2016-10-10T03:29:53.966Z,0
2016-10-10T03:30:53.957Z,0
2016-10-10T03:31:53.905Z,0
2016-10-10T03:32:53.885Z,0
2016-10-10T03:33:53.853Z,0
2016-10-10T03:34:54.157Z,0
2016-10-10T03:35:54.043Z,0
2016-10-10T03:36:53.800Z,0
2016-10-10T03:37:53.770Z,0
2016-10-10T03:38:54.080Z,0
2016-10-10T03:39:54.040Z,0
2016-10-10T03:40:53.744Z,0
2016-10-10T03:41:53.712Z,0
2016-10-10T03:42:53.671Z,0
2016-10-10T03:43:53.663Z,0
2016-10-10T03:44:53.954Z,0
2016-10-10T03:45:53.608Z,0
2016-10-10T03:46:53.593Z,0
2016-10-10T03:47:53.869Z,0
2016-10-10T03:48:53.563Z,0
2016-10-10T03:49:53.551Z,0
2016-10-10T03:50:53.506Z,0
2016-10-10T03:51:53.530Z,0
2016-10-10T03:52:53.486Z,0
2016-10-10T03:53:53.455Z,0
2016-10-10T03:54:53.436Z,0
2016-10-10T03:55:53.420Z,0
2016-10-10T03:56:53.385Z,0
2016-10-10T03:57:53.689Z,0
2016-10-10T03:58:53.629Z,0
2016-10-10T03:59:53.337Z,0
2016-10-10T04:00:53.632Z,0
2016-10-10T04:01:53.502Z,0
2016-10-10T04:02:53.458Z,0
2016-10-10T04:03:53.259Z,0
2016-10-10T04:04:53.221Z,0
2016-10-10T04:05:53.195Z,0
2016-10-10T04:06:53.198Z,0
2016-10-10T04:07:53.155Z,0
2016-10-10T04:08:53.146Z,0
2016-10-10T04:09:53.132Z,0
2016-10-10T04:10:53.088Z,0
2016-10-10T04:11:53.068Z,0
2016-10-10T04:12:53.062Z,0
2016-10-10T04:13:53.013Z,0
2016-10-10T04:14:53.019Z,0
2016-10-10T04:15:52.999Z,0
2016-10-10T04:16:52.990Z,0
2016-10-10T04:17:52.969Z,0
2016-10-10T04:18:52.919Z,0
2016-10-10T04:19:52.885Z,0
2016-10-10T04:20:52.896Z,0
2016-10-10T04:21:52.856Z,0
2016-10-10T04:22:52.862Z,0
2016-10-10T04:23:52.808Z,0
2016-10-10T04:24:52.811Z,0
2016-10-10T04:25:52.772Z,0
2016-10-10T04:26:52.756Z,0
2016-10-10T04:27:52.850Z,0
2016-10-10T04:28:52.726Z,0
2016-10-10T04:29:52.685Z,0
2016-10-10T04:30:52.690Z,0
2016-10-10T04:31:52.639Z,0
2016-10-10T04:32:52.821Z,0
2016-10-10T04:33:52.607Z,0
2016-10-10T04:34:52.583Z,0
2016-10-10T04:35:52.557Z,0
2016-10-10T04:36:52.534Z,0
2016-10-10T04:37:52.509Z,0
2016-10-10T04:38:52.499Z,0
2016-10-10T04:39:52.474Z,0
2016-10-10T04:40:52.477Z,0
2016-10-10T04:41:52.411Z,0
2016-10-10T04:42:52.421Z,0
2016-10-10T04:43:52.390Z,0
2016-10-10T04:44:52.400Z,0
2016-10-10T04:45:52.364Z,0
2016-10-10T04:46:52.342Z,0
2016-10-10T04:47:52.325Z,0
2016-10-10T04:48:52.278Z,0
2016-10-10T04:49:52.264Z,0
2016-10-10T04:50:52.250Z,0
2016-10-10T04:51:52.231Z,0
2016-10-10T04:52:52.188Z,0
2016-10-10T04:53:52.202Z,0
2016-10-10T04:54:52.178Z,0
2016-10-10T04:55:52.131Z,0
2016-10-10T04:56:52.127Z,0
2016-10-10T04:57:52.134Z,0
2016-10-10T04:58:52.084Z,0
2016-10-10T04:59:52.061Z,0
2016-10-10T05:00:52.047Z,0
2016-10-10T05:01:52.026Z,0
2016-10-10T05:02:52.015Z,0
2016-10-10T05:03:51.982Z,4
2016-10-10T05:04:51.969Z,4
2016-10-10T05:05:51.937Z,0
2016-10-10T05:06:51.913Z,4
2016-10-10T05:07:51.899Z,4
2016-10-10T05:08:51.894Z,4
2016-10-10T05:09:51.865Z,8
2016-10-10T05:10:51.844Z,8
2016-10-10T05:11:51.818Z,8
2016-10-10T05:12:51.813Z,12
2016-10-10T05:13:51.820Z,16
2016-10-10T05:14:51.758Z,16
2016-10-10T05:15:51.738Z,20
2016-10-10T05:16:51.701Z,24
2016-10-10T05:17:51.681Z,28
2016-10-10T05:18:51.699Z,28
2016-10-10T05:19:51.657Z,32
2016-10-10T05:20:51.645Z,36
2016-10-10T05:21:51.638Z,44
2016-10-10T05:22:51.597Z,48
2016-10-10T05:23:51.591Z,56
2016-10-10T05:24:51.596Z,64
2016-10-10T05:25:51.554Z,72
2016-10-10T05:26:51.540Z,84
2016-10-10T05:27:51.504Z,88
2016-10-10T05:28:51.486Z,100
2016-10-10T05:29:51.467Z,108
2016-10-10T05:30:51.465Z,112
2016-10-10T05:31:51.458Z,120
2016-10-10T05:32:51.434Z,132
2016-10-10T05:33:51.404Z,140
2016-10-10T05:34:51.405Z,152
2016-10-10T05:35:51.361Z,160
2016-10-10T05:36:51.345Z,172
2016-10-10T05:37:51.340Z,180
2016-10-10T05:38:51.296Z,192
2016-10-10T05:39:51.299Z,200
2016-10-10T05:40:51.261Z,208
2016-10-10T05:41:51.255Z,220
2016-10-10T05:42:51.204Z,228
2016-10-10T05:43:51.207Z,240
2016-10-10T05:44:51.181Z,252
2016-10-10T05:45:51.146Z,264
2016-10-10T05:46:51.152Z,276
2016-10-10T05:47:51.099Z,284
2016-10-10T05:48:51.111Z,296
2016-10-10T05:49:51.092Z,316
2016-10-10T05:50:51.074Z,332
2016-10-10T05:51:51.374Z,384
2016-10-10T05:52:51.039Z,432
2016-10-10T05:53:51.015Z,452
2016-10-10T05:54:50.990Z,448
2016-10-10T05:55:50.981Z,448
2016-10-10T05:56:50.946Z,472
2016-10-10T05:57:50.959Z,516
2016-10-10T05:58:50.914Z,536
2016-10-10T05:59:50.896Z,568
2016-10-10T06:00:50.859Z,608
2016-10-10T06:01:50.853Z,632
2016-10-10T06:02:50.855Z,656
2016-10-10T06:03:50.824Z,688
2016-10-10T06:04:50.784Z,736
2016-10-10T06:05:50.769Z,764
2016-10-10T06:06:50.765Z,796
2016-10-10T06:07:50.717Z,828
2016-10-10T06:08:50.727Z,852
2016-10-10T06:09:50.713Z,872
2016-10-10T06:10:50.660Z,884
2016-10-10T06:11:50.652Z,884
2016-10-10T06:12:50.624Z,868
2016-10-10T06:13:50.617Z,872
2016-10-10T06:14:50.604Z,904
2016-10-10T06:15:50.590Z,960
2016-10-10T06:16:50.560Z,1028
2016-10-10T06:17:50.534Z,1080
2016-10-10T06:18:50.525Z,1148
2016-10-10T06:19:50.490Z,1168
2016-10-10T06:20:50.497Z,1176
2016-10-10T06:21:50.455Z,1204
2016-10-10T06:22:50.452Z,1232
2016-10-10T06:23:50.451Z,1300
2016-10-10T06:24:50.440Z,1364
2016-10-10T06:25:50.410Z,1424
2016-10-10T06:26:50.365Z,1452
2016-10-10T06:27:50.368Z,1464
2016-10-10T06:28:50.357Z,1476
2016-10-10T06:29:50.307Z,1476
2016-10-10T06:30:50.305Z,1488
2016-10-10T06:31:50.289Z,1524
2016-10-10T06:32:50.239Z,1588
2016-10-10T06:33:50.221Z,1680
2016-10-10T06:34:50.221Z,1744
2016-10-10T06:35:50.218Z,1780
2016-10-10T06:36:50.174Z,1844
2016-10-10T06:37:50.146Z,1900
2016-10-10T06:38:50.136Z,1980
2016-10-10T06:39:50.117Z,1992
2016-10-10T06:40:50.128Z,2020
2016-10-10T06:41:50.090Z,2048
2016-10-10T06:42:50.071Z,2088
2016-10-10T06:43:50.057Z,2128
2016-10-10T06:44:50.029Z,2100
2016-10-10T06:45:50.313Z,2040
2016-10-10T06:46:49.958Z,2044
2016-10-10T06:47:49.977Z,2112
2016-10-10T06:48:49.972Z,2164
2016-10-10T06:49:49.919Z,2224
2016-10-10T06:50:49.913Z,2276
2016-10-10T06:51:49.886Z,2328
2016-10-10T06:52:49.867Z,2388
2016-10-10T06:53:49.830Z,2492
2016-10-10T06:54:49.812Z,2564
2016-10-10T06:55:49.801Z,2624
2016-10-10T06:56:49.810Z,2668
2016-10-10T06:57:49.771Z,2700
2016-10-10T06:58:49.759Z,2724
2016-10-10T06:59:49.758Z,2784
2016-10-10T07:00:49.719Z,2852
2016-10-10T07:01:49.727Z,2908
2016-10-10T07:02:49.695Z,2956
2016-10-10T07:03:49.662Z,3052
2016-10-10T07:04:49.648Z,3176
2016-10-10T07:05:49.648Z,11140
2016-10-10T07:06:49.610Z,11484
2016-10-10T07:07:49.583Z,11524
2016-10-10T07:08:49.578Z,11452
2016-10-10T07:09:49.559Z,11180
2016-10-10T07:10:49.762Z,11084
2016-10-10T07:11:49.507Z,11144
2016-10-10T07:12:49.506Z,11556
2016-10-10T07:13:49.498Z,11916
2016-10-10T07:14:49.479Z,12384
2016-10-10T07:15:49.433Z,12852
2016-10-10T07:16:49.409Z,12836
2016-10-10T07:17:49.409Z,12904
2016-10-10T07:18:49.387Z,12844
2016-10-10T07:19:49.378Z,12964
2016-10-10T07:20:49.341Z,13368
2016-10-10T07:21:49.331Z,13712
2016-10-10T07:22:49.313Z,13812
2016-10-10T07:23:49.294Z,13904
2016-10-10T07:24:49.247Z,13892
2016-10-10T07:25:49.250Z,14000
2016-10-10T07:26:49.231Z,14364
2016-10-10T07:27:49.227Z,14884
2016-10-10T07:28:49.176Z,15208
2016-10-10T07:29:49.179Z,15232
2016-10-10T07:30:49.163Z,15144
2016-10-10T07:31:49.135Z,15108
2016-10-10T07:32:49.142Z,15228
2016-10-10T07:33:49.102Z,15520
2016-10-10T07:34:49.094Z,15744
2016-10-10T07:35:49.077Z,15908
2016-10-10T07:36:49.039Z,15840
2016-10-10T07:37:49.024Z,15668
2016-10-10T07:38:49.015Z,15700
2016-10-10T07:39:48.989Z,15848
2016-10-10T07:40:48.960Z,16196
2016-10-10T07:41:48.975Z,16388
2016-10-10T07:42:48.937Z,16320
2016-10-10T07:43:48.904Z,16424
2016-10-10T07:44:48.893Z,16648
2016-10-10T07:45:48.878Z,17232
2016-10-10T07:46:48.898Z,18016
2016-10-10T07:47:48.863Z,18176
2016-10-10T07:48:48.837Z,17920
2016-10-10T07:49:48.804Z,17248
2016-10-10T07:50:48.807Z,17244
2016-10-10T07:51:48.796Z,17728
2016-10-10T07:52:48.773Z,18528
2016-10-10T07:53:48.758Z,19584
2016-10-10T07:54:48.748Z,20160
2016-10-10T07:55:48.702Z,20192
2016-10-10T07:56:48.711Z,20096
2016-10-10T07:57:48.693Z,19808
2016-10-10T07:58:48.675Z,19712
2016-10-10T07:59:48.662Z,19456
2016-10-10T08:00:48.640Z,19392
2016-10-10T08:01:48.608Z,19808
2016-10-10T08:02:48.593Z,20768
2016-10-10T08:03:48.567Z,21440
2016-10-10T08:04:48.578Z,21088
2016-10-10T08:05:48.528Z,20992
2016-10-10T08:06:48.535Z,21120
2016-10-10T08:07:48.496Z,21472
2016-10-10T08:08:48.486Z,22208
2016-10-10T08:09:48.499Z,23008
2016-10-10T08:10:48.449Z,23808
2016-10-10T08:11:48.450Z,24064
2016-10-10T08:12:48.422Z,23776
2016-10-10T08:13:48.408Z,23488
2016-10-10T08:14:48.381Z,23360
2016-10-10T08:15:48.393Z,23456
2016-10-10T08:16:48.351Z,23680
2016-10-10T08:17:48.338Z,23584
2016-10-10T08:18:48.315Z,23616
2016-10-10T08:19:48.277Z,23904
2016-10-10T08:20:48.296Z,24608
2016-10-10T08:21:48.272Z,24992
2016-10-10T08:22:48.247Z,24832
2016-10-10T08:23:48.243Z,24544
2016-10-10T08:24:48.213Z,24128
2016-10-10T08:25:48.204Z,24128
2016-10-10T08:26:48.158Z,24288
2016-10-10T08:27:48.165Z,23776
2016-10-10T08:28:48.130Z,23168
2016-10-10T08:29:48.146Z,23072
2016-10-10T08:30:48.101Z,23360
2016-10-10T08:31:48.096Z,23776
2016-10-10T08:32:48.112Z,24384
2016-10-10T08:33:48.069Z,25056
2016-10-10T08:34:48.025Z,25664
2016-10-10T08:35:48.019Z,26368
2016-10-10T08:36:48.043Z,26464
2016-10-10T08:37:47.996Z,26368
2016-10-10T08:38:47.976Z,26560
2016-10-10T08:39:47.963Z,26176
2016-10-10T08:40:47.948Z,25920
2016-10-10T08:41:47.937Z,25376
2016-10-10T08:42:47.925Z,25088
2016-10-10T08:43:47.913Z,26464
2016-10-10T08:44:47.881Z,27072
2016-10-10T08:45:47.869Z,27488
2016-10-10T08:46:47.855Z,27872
2016-10-10T08:47:47.815Z,28640
2016-10-10T08:48:47.804Z,28832
2016-10-10T08:49:47.794Z,28608
2016-10-10T08:50:47.805Z,28096
2016-10-10T08:51:48.074Z,28128
2016-10-10T08:52:47.750Z,29280
2016-10-10T08:53:47.760Z,30496
2016-10-10T08:54:48.015Z,29920
2016-10-10T08:55:47.719Z,30560
2016-10-10T08:56:47.669Z,30784
2016-10-10T08:57:47.659Z,32800
2016-10-10T08:58:47.958Z,33920
2016-10-10T08:59:47.627Z,33984
2016-10-10T09:00:47.634Z,33440
2016-10-10T09:01:47.610Z,32608
2016-10-10T09:02:47.594Z,31584
2016-10-10T09:03:47.576Z,31328
2016-10-10T09:04:47.557Z,32672
2016-10-10T09:05:47.555Z,34112
2016-10-10T09:06:47.539Z,36160
2016-10-10T09:07:47.517Z,37664
2016-10-10T09:08:47.507Z,39680
2016-10-10T09:09:47.492Z,39200
2016-10-10T09:10:47.472Z,39136
2016-10-10T09:11:47.456Z,38848
2016-10-10T09:12:47.448Z,35808
2016-10-10T09:13:47.418Z,32768
2016-10-10T09:14:47.397Z,30368
2016-10-10T09:15:47.415Z,29856
2016-10-10T09:16:47.394Z,29888
2016-10-10T09:17:47.374Z,30208
2016-10-10T09:18:47.324Z,31904
2016-10-10T09:19:47.347Z,33376
2016-10-10T09:20:47.308Z,33664
2016-10-10T09:21:47.278Z,34496
2016-10-10T09:22:47.295Z,35936
2016-10-10T09:23:47.293Z,37664
2016-10-10T09:24:47.252Z,37600
2016-10-10T09:25:47.234Z,36576
2016-10-10T09:26:47.218Z,35104
2016-10-10T09:27:47.187Z,35424
2016-10-10T09:28:47.200Z,36128
2016-10-10T09:29:47.171Z,37344
2016-10-10T09:30:47.171Z,38144
2016-10-10T09:31:47.154Z,37632
2016-10-10T09:32:47.138Z,36736
2016-10-10T09:33:47.140Z,34624
2016-10-10T09:34:47.102Z,33056
2016-10-10T09:35:47.093Z,32224
2016-10-10T09:36:47.077Z,33920
2016-10-10T09:37:47.050Z,36960
2016-10-10T09:38:47.026Z,40480
2016-10-10T09:39:47.018Z,46144
2016-10-10T09:40:47.007Z,55360
2016-10-10T09:41:46.983Z,57408
2016-10-10T09:42:46.995Z,54272
2016-10-10T09:43:46.968Z,48960
2016-10-10T09:44:46.970Z,44288
2016-10-10T09:45:46.932Z,39904
2016-10-10T09:46:46.911Z,35008
2016-10-10T09:47:46.909Z,31008
2016-10-10T09:48:46.877Z,28704
2016-10-10T09:49:46.856Z,30784
2016-10-10T09:50:46.857Z,34432
2016-10-10T09:51:46.847Z,39488
2016-10-10T09:52:46.842Z,44480
2016-10-10T09:53:46.823Z,47552
2016-10-10T09:54:46.805Z,47904
2016-10-10T09:55:46.796Z,46816
2016-10-10T09:56:46.760Z,42688
2016-10-10T09:57:46.779Z,37536
2016-10-10T09:58:46.747Z,32864
2016-10-10T09:59:47.047Z,30016
2016-10-10T10:00:46.691Z,29824
2016-10-10T10:01:46.685Z,31776
2016-10-10T10:02:46.675Z,35744
2016-10-10T10:03:46.965Z,41696
2016-10-10T10:04:46.644Z,47712
2016-10-10T10:05:46.667Z,50848
2016-10-10T10:06:46.606Z,53888
2016-10-10T10:07:46.603Z,49344
2016-10-10T10:08:46.587Z,44576
2016-10-10T10:09:46.595Z,39488
2016-10-10T10:10:46.560Z,36896
2016-10-10T10:11:46.577Z,33696
2016-10-10T10:12:46.541Z,33440
2016-10-10T10:13:46.519Z,36192
2016-10-10T10:14:46.490Z,41088
2016-10-10T10:15:46.467Z,44736
2016-10-10T10:16:46.500Z,53472
2016-10-10T10:17:46.479Z,54272
2016-10-10T10:18:46.442Z,50432
2016-10-10T10:19:46.447Z,45344
2016-10-10T10:20:46.722Z,43328
2016-10-10T10:21:46.396Z,39840
2016-10-10T10:22:46.688Z,40160
2016-10-10T10:23:46.394Z,44096
2016-10-10T10:24:47.332Z,44864
2016-10-10T10:25:46.958Z,47360
2016-10-10T10:26:46.950Z,50688
2016-10-10T10:27:47.510Z,44608
2016-10-10T10:28:46.630Z,39584
2016-10-10T10:29:46.914Z,38528
2016-10-10T10:30:46.922Z,38336
2016-10-10T10:31:46.585Z,42368
2016-10-10T10:32:46.876Z,47456
2016-10-10T10:33:47.187Z,43296
2016-10-10T10:34:46.880Z,37696
2016-10-10T10:35:46.225Z,34816
2016-10-10T10:36:46.474Z,33504
2016-10-10T10:37:46.785Z,34912
2016-10-10T10:38:46.456Z,38720
2016-10-10T10:39:46.761Z,40320
2016-10-10T10:40:46.422Z,41728
2016-10-10T10:41:46.109Z,47712
2016-10-10T10:42:46.376Z,50816
2016-10-10T10:43:46.099Z,46592
2016-10-10T10:44:46.663Z,41664
2016-10-10T10:45:46.693Z,37600
2016-10-10T10:46:46.368Z,35488
2016-10-10T10:47:46.622Z,34816
2016-10-10T10:48:46.337Z,34656
2016-10-10T10:49:45.969Z,34336
2016-10-10T10:50:46.263Z,34400
2016-10-10T10:51:46.479Z,35584
2016-10-10T10:52:46.276Z,36640
2016-10-10T10:53:46.609Z,38912
2016-10-10T10:54:46.224Z,38560
2016-10-10T10:55:46.499Z,39200
2016-10-10T10:56:46.193Z,40416
2016-10-10T10:57:46.464Z,42944
2016-10-10T10:58:46.843Z,43040
2016-10-10T10:59:45.816Z,40384
2016-10-10T11:00:45.849Z,38400
2016-10-10T11:01:46.154Z,37920
2016-10-10T11:02:46.429Z,38336
2016-10-10T11:03:45.819Z,38592
2016-10-10T11:04:46.439Z,37824
2016-10-10T11:05:45.789Z,35552
2016-10-10T11:06:46.692Z,34144
2016-10-10T11:07:46.348Z,34112
2016-10-10T11:08:46.046Z,34528
2016-10-10T11:09:46.300Z,36096
2016-10-10T11:10:45.989Z,35296
2016-10-10T11:11:45.975Z,34144
2016-10-10T11:12:46.287Z,34144
2016-10-10T11:13:46.291Z,34880
2016-10-10T11:14:46.231Z,35904
2016-10-10T11:15:45.607Z,36864
2016-10-10T11:16:46.797Z,36896
2016-10-10T11:17:45.591Z,36192
2016-10-10T11:18:46.173Z,34912
2016-10-10T11:19:46.479Z,33440
2016-10-10T11:20:46.145Z,32000
2016-10-10T11:21:46.453Z,30688
2016-10-10T11:22:46.177Z,28448
2016-10-10T11:23:45.490Z,28032
2016-10-10T11:24:45.778Z,28320
2016-10-10T11:25:45.486Z,29120
2016-10-10T11:26:45.747Z,29152
2016-10-10T11:27:46.052Z,29120
2016-10-10T11:28:45.694Z,29152
2016-10-10T11:29:46.048Z,29568
2016-10-10T11:30:45.993Z,30336
2016-10-10T11:31:45.399Z,30464
2016-10-10T11:32:45.968Z,30656
2016-10-10T11:33:45.642Z,30464
2016-10-10T11:34:45.969Z,29920
2016-10-10T11:35:46.225Z,29888
2016-10-10T11:36:45.636Z,29632
2016-10-10T11:37:45.882Z,29568
2016-10-10T11:38:45.897Z,29920
2016-10-10T11:39:45.567Z,30272
2016-10-10T11:40:45.227Z,30656
2016-10-10T11:41:46.135Z,30912
2016-10-10T11:42:45.195Z,30560
2016-10-10T11:43:45.850Z,30048
2016-10-10T11:44:45.792Z,29664
2016-10-10T11:45:45.455Z,30112
2016-10-10T11:46:46.062Z,30624
2016-10-10T11:47:45.710Z,30784
2016-10-10T11:48:46.038Z,30336
2016-10-10T11:49:46.026Z,28800
2016-10-10T11:50:45.712Z,28288
2016-10-10T11:51:45.097Z,27840
2016-10-10T11:52:45.669Z,27232
2016-10-10T11:53:45.317Z,26016
2016-10-10T11:54:45.012Z,25280
2016-10-10T11:55:45.341Z,24672
2016-10-10T11:56:45.325Z,24256
2016-10-10T11:57:45.604Z,23808
2016-10-10T11:58:45.581Z,23680
2016-10-10T11:59:45.230Z,23680
2016-10-10T12:00:45.285Z,23648
2016-10-10T12:01:45.534Z,23264
2016-10-10T12:02:45.425Z,23232
2016-10-10T12:03:45.150Z,23232
2016-10-10T12:04:45.408Z,23232
2016-10-10T12:05:44.850Z,23136
2016-10-10T12:06:45.125Z,23264
2016-10-10T12:07:45.423Z,23616
2016-10-10T12:08:45.079Z,23744
2016-10-10T12:09:45.388Z,23808
2016-10-10T12:10:45.040Z,23584
2016-10-10T12:11:45.395Z,23264
2016-10-10T12:12:45.370Z,23552
2016-10-10T12:13:45.622Z,23808
2016-10-10T12:14:45.662Z,23872
2016-10-10T12:15:44.998Z,23936
2016-10-10T12:16:44.679Z,24032
2016-10-10T12:17:44.637Z,24608
2016-10-10T12:18:44.937Z,24736
2016-10-10T12:19:44.884Z,24640
2016-10-10T12:20:44.895Z,24608
2016-10-10T12:21:44.533Z,24384
2016-10-10T12:22:44.518Z,24352
2016-10-10T12:23:44.826Z,24384
2016-10-10T12:24:44.483Z,24480
2016-10-10T12:25:44.785Z,24992
2016-10-10T12:26:45.107Z,25280
2016-10-10T12:27:45.092Z,25376
2016-10-10T12:28:44.766Z,25984
2016-10-10T12:29:44.420Z,26208
2016-10-10T12:30:44.722Z,26208
2016-10-10T12:31:44.999Z,26848
2016-10-10T12:32:44.868Z,27488
2016-10-10T12:33:44.642Z,28192
2016-10-10T12:34:44.358Z,28960
2016-10-10T12:35:44.605Z,29920
2016-10-10T12:36:44.283Z,29952
2016-10-10T12:37:44.275Z,29472
2016-10-10T12:38:44.544Z,28800
2016-10-10T12:39:44.594Z,27936
2016-10-10T12:40:44.241Z,27008
2016-10-10T12:41:44.212Z,26112
2016-10-10T12:42:44.479Z,25152
2016-10-10T12:43:44.214Z,24576
2016-10-10T12:44:44.497Z,24416
2016-10-10T12:45:44.143Z,24672
2016-10-10T12:46:44.441Z,25088
2016-10-10T12:47:44.130Z,26368
2016-10-10T12:48:44.440Z,23744
2016-10-10T12:49:44.746Z,23072
2016-10-10T12:50:44.393Z,22976
2016-10-10T12:51:44.393Z,23136
2016-10-10T12:52:44.396Z,23744
2016-10-10T12:53:44.676Z,24608
2016-10-10T12:54:44.338Z,24800
2016-10-10T12:55:44.017Z,23488
2016-10-10T12:56:44.303Z,23232
2016-10-10T12:57:43.953Z,22816
2016-10-10T12:58:44.267Z,22944
2016-10-10T12:59:44.558Z,23104
2016-10-10T13:00:43.983Z,23424
2016-10-10T13:01:44.513Z,24256
2016-10-10T13:02:44.190Z,24256
2016-10-10T13:03:44.207Z,24064
2016-10-10T13:04:44.171Z,24448
2016-10-10T13:05:43.856Z,25216
2016-10-10T13:06:44.126Z,25280
2016-10-10T13:07:44.109Z,24704
2016-10-10T13:08:43.821Z,24544
2016-10-10T13:09:44.076Z,24384
2016-10-10T13:10:43.745Z,25216
2016-10-10T13:11:43.727Z,25024
2016-10-10T13:12:43.716Z,24160
2016-10-10T13:13:43.691Z,22880
2016-10-10T13:14:43.676Z,23680
2016-10-10T13:15:43.680Z,23968
2016-10-10T13:16:43.683Z,24416
2016-10-10T13:17:43.976Z,24704
2016-10-10T13:18:43.643Z,24544
2016-10-10T13:19:43.604Z,24128
2016-10-10T13:20:43.608Z,23680
2016-10-10T13:21:43.560Z,23168
2016-10-10T13:22:43.561Z,22688
2016-10-10T13:23:43.533Z,21984
2016-10-10T13:24:43.506Z,22016
2016-10-10T13:25:44.140Z,22176
2016-10-10T13:26:44.168Z,22400
2016-10-10T13:27:44.391Z,22464
2016-10-10T13:28:44.060Z,22432
2016-10-10T13:29:43.833Z,22240
2016-10-10T13:30:43.462Z,22144
2016-10-10T13:31:43.757Z,22304
2016-10-10T13:32:43.414Z,22464
2016-10-10T13:33:43.687Z,22592
2016-10-10T13:34:44.065Z,22848
2016-10-10T13:35:43.664Z,23392
2016-10-10T13:36:43.345Z,23424
2016-10-10T13:37:43.958Z,23168
2016-10-10T13:38:43.624Z,22912
2016-10-10T13:39:43.331Z,22624